sensor_id;sensor_type;location;lat;lon;timestamp;P1;durP1;ratioP1;P2;durP2;ratioP2
67585;SDS011;55785;47.946;20.540;2023-07-29T00:02:20;5.00;;;1.80;;
67585;SDS011;55785;47.946;20.540;2023-07-29T00:04:46;3.72;;;1.40;;
67585;SDS011;55785;47.946;20.540;2023-07-29T00:07:11;2.88;;;1.67;;
67585;SDS011;55785;47.946;20.540;2023-07-29T00:09:36;6.00;;;1.80;;
67585;SDS011;55785;47.946;20.540;2023-07-29T00:12:02;3.90;;;1.58;;
67585;SDS011;55785;47.946;20.540;2023-07-29T00:14:27;3.88;;;1.70;;
67585;SDS011;55785;47.946;20.540;2023-07-29T00:16:53;5.55;;;1.67;;
67585;SDS011;55785;47.946;20.540;2023-07-29T00:19:18;3.30;;;1.80;;
67585;SDS011;55785;47.946;20.540;2023-07-29T00:21:43;3.15;;;1.60;;
67585;SDS011;55785;47.946;20.540;2023-07-29T00:24:09;3.20;;;1.60;;
67585;SDS011;55785;47.946;20.540;2023-07-29T00:26:34;2.60;;;1.55;;
67585;SDS011;55785;47.946;20.540;2023-07-29T00:28:59;3.25;;;1.50;;
67585;SDS011;55785;47.946;20.540;2023-07-29T00:31:25;3.63;;;1.80;;
67585;SDS011;55785;47.946;20.540;2023-07-29T00:33:50;5.82;;;1.80;;
67585;SDS011;55785;47.946;20.540;2023-07-29T00:36:15;3.42;;;1.63;;
67585;SDS011;55785;47.946;20.540;2023-07-29T00:38:41;4.20;;;1.75;;
67585;SDS011;55785;47.946;20.540;2023-07-29T00:41:06;3.63;;;1.70;;
67585;SDS011;55785;47.946;20.540;2023-07-29T00:43:32;2.85;;;1.67;;
67585;SDS011;55785;47.946;20.540;2023-07-29T00:45:57;2.20;;;1.73;;
67585;SDS011;55785;47.946;20.540;2023-07-29T00:48:23;4.63;;;1.67;;
67585;SDS011;55785;47.946;20.540;2023-07-29T00:50:49;4.15;;;1.58;;
67585;SDS011;55785;47.946;20.540;2023-07-29T00:53:15;3.63;;;1.80;;
67585;SDS011;55785;47.946;20.540;2023-07-29T00:55:41;2.90;;;1.70;;
67585;SDS011;55785;47.946;20.540;2023-07-29T00:58:07;2.78;;;1.77;;
67585;SDS011;55785;47.946;20.540;2023-07-29T01:00:33;4.65;;;1.70;;
67585;SDS011;55785;47.946;20.540;2023-07-29T01:02:58;2.88;;;1.60;;
67585;SDS011;55785;47.946;20.540;2023-07-29T01:05:24;5.25;;;2.30;;
67585;SDS011;55785;47.946;20.540;2023-07-29T01:07:59;4.15;;;1.77;;
67585;SDS011;55785;47.946;20.540;2023-07-29T01:13:36;2.50;;;1.67;;
67585;SDS011;55785;47.946;20.540;2023-07-29T01:16:10;2.00;;;1.50;;
67585;SDS011;55785;47.946;20.540;2023-07-29T01:18:41;3.10;;;1.45;;
67585;SDS011;55785;47.946;20.540;2023-07-29T01:21:12;3.00;;;1.60;;
67585;SDS011;55785;47.946;20.540;2023-07-29T01:23:39;3.33;;;1.60;;
67585;SDS011;55785;47.946;20.540;2023-07-29T01:26:04;3.72;;;1.70;;
67585;SDS011;55785;47.946;20.540;2023-07-29T01:28:30;4.78;;;1.70;;
67585;SDS011;55785;47.946;20.540;2023-07-29T01:31:16;4.80;;;1.75;;
67585;SDS011;55785;47.946;20.540;2023-07-29T01:33:48;4.25;;;1.75;;
67585;SDS011;55785;47.946;20.540;2023-07-29T01:36:20;2.10;;;1.60;;
67585;SDS011;55785;47.946;20.540;2023-07-29T01:38:47;3.15;;;1.70;;
67585;SDS011;55785;47.946;20.540;2023-07-29T01:41:14;3.38;;;1.90;;
67585;SDS011;55785;47.946;20.540;2023-07-29T01:43:40;4.13;;;1.80;;
67585;SDS011;55785;47.946;20.540;2023-07-29T01:46:06;4.35;;;1.75;;
67585;SDS011;55785;47.946;20.540;2023-07-29T01:48:32;5.80;;;1.80;;
67585;SDS011;55785;47.946;20.540;2023-07-29T01:50:57;2.88;;;1.77;;
67585;SDS011;55785;47.946;20.540;2023-07-29T01:53:23;4.68;;;1.75;;
67585;SDS011;55785;47.946;20.540;2023-07-29T01:55:48;3.03;;;1.80;;
67585;SDS011;55785;47.946;20.540;2023-07-29T01:58:13;3.47;;;1.88;;
67585;SDS011;55785;47.946;20.540;2023-07-29T02:00:39;2.72;;;1.63;;
67585;SDS011;55785;47.946;20.540;2023-07-29T02:03:04;2.00;;;1.55;;
67585;SDS011;55785;47.946;20.540;2023-07-29T02:05:29;2.38;;;1.60;;
67585;SDS011;55785;47.946;20.540;2023-07-29T02:07:55;2.47;;;1.60;;
67585;SDS011;55785;47.946;20.540;2023-07-29T02:10:20;4.25;;;1.80;;
67585;SDS011;55785;47.946;20.540;2023-07-29T02:12:45;3.35;;;1.70;;
67585;SDS011;55785;47.946;20.540;2023-07-29T02:15:11;3.95;;;1.90;;
67585;SDS011;55785;47.946;20.540;2023-07-29T02:17:36;4.05;;;2.00;;
67585;SDS011;55785;47.946;20.540;2023-07-29T02:20:02;4.78;;;1.85;;
67585;SDS011;55785;47.946;20.540;2023-07-29T02:22:28;5.07;;;1.90;;
67585;SDS011;55785;47.946;20.540;2023-07-29T02:24:54;4.30;;;1.70;;
67585;SDS011;55785;47.946;20.540;2023-07-29T02:27:20;5.40;;;1.80;;
67585;SDS011;55785;47.946;20.540;2023-07-29T02:29:45;2.15;;;1.65;;
67585;SDS011;55785;47.946;20.540;2023-07-29T02:32:10;2.90;;;1.63;;
67585;SDS011;55785;47.946;20.540;2023-07-29T02:34:36;3.10;;;1.85;;
67585;SDS011;55785;47.946;20.540;2023-07-29T02:37:01;2.67;;;1.83;;
67585;SDS011;55785;47.946;20.540;2023-07-29T02:39:26;3.17;;;1.90;;
67585;SDS011;55785;47.946;20.540;2023-07-29T02:41:52;2.88;;;2.00;;
67585;SDS011;55785;47.946;20.540;2023-07-29T02:44:17;3.97;;;1.90;;
67585;SDS011;55785;47.946;20.540;2023-07-29T02:46:43;2.63;;;1.70;;
67585;SDS011;55785;47.946;20.540;2023-07-29T02:49:08;4.72;;;1.90;;
67585;SDS011;55785;47.946;20.540;2023-07-29T02:51:33;3.20;;;1.90;;
67585;SDS011;55785;47.946;20.540;2023-07-29T02:53:59;3.55;;;1.88;;
67585;SDS011;55785;47.946;20.540;2023-07-29T02:56:24;4.22;;;1.75;;
67585;SDS011;55785;47.946;20.540;2023-07-29T02:58:49;7.03;;;2.00;;
67585;SDS011;55785;47.946;20.540;2023-07-29T03:01:15;3.75;;;1.98;;
67585;SDS011;55785;47.946;20.540;2023-07-29T03:03:40;3.97;;;1.98;;
67585;SDS011;55785;47.946;20.540;2023-07-29T03:06:06;5.80;;;1.92;;
67585;SDS011;55785;47.946;20.540;2023-07-29T03:08:33;2.95;;;1.70;;
67585;SDS011;55785;47.946;20.540;2023-07-29T03:11:04;2.28;;;1.58;;
67585;SDS011;55785;47.946;20.540;2023-07-29T03:13:40;3.08;;;1.60;;
67585;SDS011;55785;47.946;20.540;2023-07-29T03:18:41;2.58;;;1.77;;
67585;SDS011;55785;47.946;20.540;2023-07-29T03:21:07;1.80;;;1.55;;
67585;SDS011;55785;47.946;20.540;2023-07-29T03:23:33;3.17;;;1.73;;
67585;SDS011;55785;47.946;20.540;2023-07-29T03:26:00;3.28;;;1.90;;
67585;SDS011;55785;47.946;20.540;2023-07-29T03:28:27;4.97;;;1.98;;
67585;SDS011;55785;47.946;20.540;2023-07-29T03:30:58;3.47;;;1.90;;
67585;SDS011;55785;47.946;20.540;2023-07-29T03:33:24;3.72;;;2.00;;
67585;SDS011;55785;47.946;20.540;2023-07-29T03:35:50;3.10;;;1.98;;
67585;SDS011;55785;47.946;20.540;2023-07-29T03:38:15;2.95;;;1.90;;
67585;SDS011;55785;47.946;20.540;2023-07-29T03:40:41;3.20;;;1.88;;
67585;SDS011;55785;47.946;20.540;2023-07-29T03:43:07;3.97;;;1.80;;
67585;SDS011;55785;47.946;20.540;2023-07-29T03:45:32;2.50;;;1.88;;
67585;SDS011;55785;47.946;20.540;2023-07-29T03:47:58;3.17;;;1.80;;
67585;SDS011;55785;47.946;20.540;2023-07-29T03:50:24;6.65;;;2.00;;
67585;SDS011;55785;47.946;20.540;2023-07-29T03:52:50;3.55;;;1.90;;
67585;SDS011;55785;47.946;20.540;2023-07-29T03:55:15;4.43;;;1.90;;
67585;SDS011;55785;47.946;20.540;2023-07-29T03:57:41;5.75;;;2.10;;
67585;SDS011;55785;47.946;20.540;2023-07-29T04:00:06;3.90;;;2.05;;
67585;SDS011;55785;47.946;20.540;2023-07-29T04:02:32;2.22;;;1.73;;
67585;SDS011;55785;47.946;20.540;2023-07-29T04:04:57;3.60;;;1.95;;
67585;SDS011;55785;47.946;20.540;2023-07-29T04:07:22;2.80;;;1.70;;
67585;SDS011;55785;47.946;20.540;2023-07-29T04:09:48;3.03;;;1.95;;
67585;SDS011;55785;47.946;20.540;2023-07-29T04:12:13;3.33;;;2.00;;
67585;SDS011;55785;47.946;20.540;2023-07-29T04:14:39;4.03;;;1.85;;
67585;SDS011;55785;47.946;20.540;2023-07-29T04:17:04;2.33;;;1.75;;
67585;SDS011;55785;47.946;20.540;2023-07-29T04:19:30;2.90;;;1.85;;
67585;SDS011;55785;47.946;20.540;2023-07-29T04:21:55;3.67;;;1.90;;
67585;SDS011;55785;47.946;20.540;2023-07-29T04:24:20;6.88;;;1.90;;
67585;SDS011;55785;47.946;20.540;2023-07-29T04:26:45;3.88;;;1.98;;
67585;SDS011;55785;47.946;20.540;2023-07-29T04:29:11;4.97;;;1.85;;
67585;SDS011;55785;47.946;20.540;2023-07-29T04:31:36;2.17;;;1.75;;
67585;SDS011;55785;47.946;20.540;2023-07-29T04:34:01;4.63;;;1.80;;
67585;SDS011;55785;47.946;20.540;2023-07-29T04:36:27;3.05;;;1.70;;
67585;SDS011;55785;47.946;20.540;2023-07-29T04:38:52;2.60;;;1.55;;
67585;SDS011;55785;47.946;20.540;2023-07-29T04:41:17;2.80;;;1.80;;
67585;SDS011;55785;47.946;20.540;2023-07-29T04:43:42;3.30;;;2.10;;
67585;SDS011;55785;47.946;20.540;2023-07-29T04:46:07;5.05;;;1.98;;
67585;SDS011;55785;47.946;20.540;2023-07-29T04:48:33;3.35;;;1.92;;
67585;SDS011;55785;47.946;20.540;2023-07-29T04:50:58;2.58;;;1.73;;
67585;SDS011;55785;47.946;20.540;2023-07-29T04:53:23;4.07;;;1.60;;
67585;SDS011;55785;47.946;20.540;2023-07-29T04:55:48;2.60;;;2.03;;
67585;SDS011;55785;47.946;20.540;2023-07-29T04:58:14;2.85;;;1.70;;
67585;SDS011;55785;47.946;20.540;2023-07-29T05:00:39;3.05;;;1.60;;
67585;SDS011;55785;47.946;20.540;2023-07-29T05:03:04;2.83;;;1.50;;
67585;SDS011;55785;47.946;20.540;2023-07-29T05:05:29;3.15;;;1.70;;
67585;SDS011;55785;47.946;20.540;2023-07-29T05:07:54;4.10;;;1.77;;
67585;SDS011;55785;47.946;20.540;2023-07-29T05:10:20;3.60;;;1.73;;
67585;SDS011;55785;47.946;20.540;2023-07-29T05:12:45;4.25;;;1.80;;
67585;SDS011;55785;47.946;20.540;2023-07-29T05:15:10;5.13;;;1.88;;
67585;SDS011;55785;47.946;20.540;2023-07-29T05:17:35;2.72;;;1.85;;
67585;SDS011;55785;47.946;20.540;2023-07-29T05:20:00;2.05;;;1.50;;
67585;SDS011;55785;47.946;20.540;2023-07-29T05:22:26;4.95;;;1.90;;
67585;SDS011;55785;47.946;20.540;2023-07-29T05:24:51;3.20;;;1.75;;
67585;SDS011;55785;47.946;20.540;2023-07-29T05:27:16;3.75;;;1.60;;
67585;SDS011;55785;47.946;20.540;2023-07-29T05:29:41;3.35;;;1.70;;
67585;SDS011;55785;47.946;20.540;2023-07-29T05:32:07;1.90;;;1.58;;
67585;SDS011;55785;47.946;20.540;2023-07-29T05:34:32;3.50;;;1.80;;
67585;SDS011;55785;47.946;20.540;2023-07-29T05:36:57;2.92;;;1.60;;
67585;SDS011;55785;47.946;20.540;2023-07-29T05:39:22;2.42;;;1.67;;
67585;SDS011;55785;47.946;20.540;2023-07-29T05:41:48;4.32;;;1.80;;
67585;SDS011;55785;47.946;20.540;2023-07-29T05:44:14;3.90;;;1.70;;
67585;SDS011;55785;47.946;20.540;2023-07-29T05:46:39;2.40;;;1.55;;
67585;SDS011;55785;47.946;20.540;2023-07-29T05:49:04;2.40;;;1.70;;
67585;SDS011;55785;47.946;20.540;2023-07-29T05:51:30;2.75;;;1.60;;
67585;SDS011;55785;47.946;20.540;2023-07-29T05:53:55;3.78;;;1.70;;
67585;SDS011;55785;47.946;20.540;2023-07-29T05:56:20;2.55;;;1.65;;
67585;SDS011;55785;47.946;20.540;2023-07-29T05:58:45;4.18;;;1.60;;
67585;SDS011;55785;47.946;20.540;2023-07-29T06:01:11;2.10;;;1.65;;
67585;SDS011;55785;47.946;20.540;2023-07-29T06:03:36;2.75;;;1.65;;
67585;SDS011;55785;47.946;20.540;2023-07-29T06:06:01;2.50;;;1.60;;
67585;SDS011;55785;47.946;20.540;2023-07-29T06:08:26;2.17;;;1.52;;
67585;SDS011;55785;47.946;20.540;2023-07-29T06:10:51;2.40;;;1.60;;
67585;SDS011;55785;47.946;20.540;2023-07-29T06:13:17;2.60;;;1.60;;
67585;SDS011;55785;47.946;20.540;2023-07-29T06:15:42;3.75;;;1.73;;
67585;SDS011;55785;47.946;20.540;2023-07-29T06:18:07;1.75;;;1.38;;
67585;SDS011;55785;47.946;20.540;2023-07-29T06:20:32;2.10;;;1.63;;
67585;SDS011;55785;47.946;20.540;2023-07-29T06:22:58;4.97;;;1.60;;
67585;SDS011;55785;47.946;20.540;2023-07-29T06:25:23;3.17;;;1.70;;
67585;SDS011;55785;47.946;20.540;2023-07-29T06:27:48;2.35;;;1.40;;
67585;SDS011;55785;47.946;20.540;2023-07-29T06:30:13;2.28;;;1.50;;
67585;SDS011;55785;47.946;20.540;2023-07-29T06:32:38;4.43;;;1.85;;
67585;SDS011;55785;47.946;20.540;2023-07-29T06:35:04;2.72;;;1.40;;
67585;SDS011;55785;47.946;20.540;2023-07-29T06:37:29;2.30;;;1.50;;
67585;SDS011;55785;47.946;20.540;2023-07-29T06:39:54;2.10;;;1.45;;
67585;SDS011;55785;47.946;20.540;2023-07-29T06:42:19;2.70;;;1.50;;
67585;SDS011;55785;47.946;20.540;2023-07-29T06:44:45;2.53;;;1.48;;
67585;SDS011;55785;47.946;20.540;2023-07-29T06:47:11;3.22;;;1.83;;
67585;SDS011;55785;47.946;20.540;2023-07-29T06:49:36;2.88;;;1.60;;
67585;SDS011;55785;47.946;20.540;2023-07-29T06:52:02;2.60;;;1.48;;
67585;SDS011;55785;47.946;20.540;2023-07-29T06:54:27;3.08;;;1.67;;
67585;SDS011;55785;47.946;20.540;2023-07-29T06:56:53;3.72;;;1.52;;
67585;SDS011;55785;47.946;20.540;2023-07-29T06:59:18;4.47;;;1.70;;
67585;SDS011;55785;47.946;20.540;2023-07-29T07:01:43;2.58;;;1.60;;
67585;SDS011;55785;47.946;20.540;2023-07-29T07:04:09;3.20;;;1.65;;
67585;SDS011;55785;47.946;20.540;2023-07-29T07:06:34;2.83;;;1.63;;
67585;SDS011;55785;47.946;20.540;2023-07-29T07:09:00;2.40;;;1.60;;
67585;SDS011;55785;47.946;20.540;2023-07-29T07:11:25;2.92;;;1.50;;
67585;SDS011;55785;47.946;20.540;2023-07-29T07:13:50;3.63;;;1.60;;
67585;SDS011;55785;47.946;20.540;2023-07-29T07:16:16;2.33;;;1.40;;
67585;SDS011;55785;47.946;20.540;2023-07-29T07:18:41;3.60;;;1.50;;
67585;SDS011;55785;47.946;20.540;2023-07-29T07:21:06;3.33;;;1.60;;
67585;SDS011;55785;47.946;20.540;2023-07-29T07:23:32;2.80;;;1.70;;
67585;SDS011;55785;47.946;20.540;2023-07-29T07:25:57;2.25;;;1.60;;
67585;SDS011;55785;47.946;20.540;2023-07-29T07:28:22;4.00;;;1.75;;
67585;SDS011;55785;47.946;20.540;2023-07-29T07:30:48;2.80;;;1.50;;
67585;SDS011;55785;47.946;20.540;2023-07-29T07:33:13;2.40;;;1.55;;
67585;SDS011;55785;47.946;20.540;2023-07-29T07:35:38;2.47;;;1.60;;
67585;SDS011;55785;47.946;20.540;2023-07-29T07:38:04;2.55;;;1.67;;
67585;SDS011;55785;47.946;20.540;2023-07-29T07:40:30;2.20;;;1.70;;
67585;SDS011;55785;47.946;20.540;2023-07-29T07:42:56;3.38;;;1.88;;
67585;SDS011;55785;47.946;20.540;2023-07-29T07:45:21;2.55;;;1.50;;
67585;SDS011;55785;47.946;20.540;2023-07-29T07:47:47;2.70;;;1.77;;
67585;SDS011;55785;47.946;20.540;2023-07-29T07:50:12;2.58;;;1.73;;
67585;SDS011;55785;47.946;20.540;2023-07-29T07:52:37;4.05;;;1.70;;
67585;SDS011;55785;47.946;20.540;2023-07-29T07:55:03;2.65;;;1.85;;
67585;SDS011;55785;47.946;20.540;2023-07-29T07:57:28;2.15;;;1.77;;
67585;SDS011;55785;47.946;20.540;2023-07-29T07:59:54;2.70;;;2.00;;
67585;SDS011;55785;47.946;20.540;2023-07-29T08:02:19;2.40;;;1.70;;
67585;SDS011;55785;47.946;20.540;2023-07-29T08:04:44;2.28;;;1.60;;
67585;SDS011;55785;47.946;20.540;2023-07-29T08:07:10;3.30;;;1.83;;
67585;SDS011;55785;47.946;20.540;2023-07-29T08:09:35;4.65;;;1.70;;
67585;SDS011;55785;47.946;20.540;2023-07-29T08:12:00;2.05;;;1.52;;
67585;SDS011;55785;47.946;20.540;2023-07-29T08:14:26;4.53;;;1.60;;
67585;SDS011;55785;47.946;20.540;2023-07-29T08:16:51;2.30;;;1.63;;
67585;SDS011;55785;47.946;20.540;2023-07-29T08:19:17;2.53;;;1.48;;
67585;SDS011;55785;47.946;20.540;2023-07-29T08:21:42;6.20;;;1.80;;
67585;SDS011;55785;47.946;20.540;2023-07-29T08:24:07;2.65;;;1.67;;
67585;SDS011;55785;47.946;20.540;2023-07-29T08:26:33;3.83;;;1.80;;
67585;SDS011;55785;47.946;20.540;2023-07-29T08:28:58;2.45;;;1.50;;
67585;SDS011;55785;47.946;20.540;2023-07-29T08:31:23;2.45;;;1.40;;
67585;SDS011;55785;47.946;20.540;2023-07-29T08:33:49;3.65;;;1.60;;
67585;SDS011;55785;47.946;20.540;2023-07-29T08:36:14;2.33;;;1.60;;
67585;SDS011;55785;47.946;20.540;2023-07-29T08:38:40;2.13;;;1.65;;
67585;SDS011;55785;47.946;20.540;2023-07-29T08:43:54;2.40;;;1.70;;
67585;SDS011;55785;47.946;20.540;2023-07-29T08:46:26;2.83;;;2.00;;
67585;SDS011;55785;47.946;20.540;2023-07-29T08:48:53;2.05;;;1.67;;
67585;SDS011;55785;47.946;20.540;2023-07-29T08:51:19;2.65;;;1.70;;
67585;SDS011;55785;47.946;20.540;2023-07-29T08:53:46;3.40;;;1.70;;
67585;SDS011;55785;47.946;20.540;2023-07-29T08:56:12;3.05;;;1.98;;
67585;SDS011;55785;47.946;20.540;2023-07-29T08:58:38;3.30;;;1.67;;
67585;SDS011;55785;47.946;20.540;2023-07-29T09:01:05;2.80;;;1.65;;
67585;SDS011;55785;47.946;20.540;2023-07-29T09:03:31;2.85;;;1.48;;
67585;SDS011;55785;47.946;20.540;2023-07-29T09:05:57;3.10;;;1.48;;
67585;SDS011;55785;47.946;20.540;2023-07-29T09:08:23;2.83;;;2.00;;
67585;SDS011;55785;47.946;20.540;2023-07-29T09:10:51;3.03;;;1.58;;
67585;SDS011;55785;47.946;20.540;2023-07-29T09:13:17;2.17;;;1.60;;
67585;SDS011;55785;47.946;20.540;2023-07-29T09:15:42;2.40;;;1.67;;
67585;SDS011;55785;47.946;20.540;2023-07-29T09:18:11;1.80;;;1.42;;
67585;SDS011;55785;47.946;20.540;2023-07-29T09:20:39;1.75;;;1.30;;
67585;SDS011;55785;47.946;20.540;2023-07-29T09:23:07;1.70;;;1.23;;
67585;SDS011;55785;47.946;20.540;2023-07-29T09:25:33;1.75;;;1.40;;
67585;SDS011;55785;47.946;20.540;2023-07-29T09:27:59;2.63;;;1.20;;
67585;SDS011;55785;47.946;20.540;2023-07-29T09:30:25;3.58;;;1.50;;
67585;SDS011;55785;47.946;20.540;2023-07-29T09:32:57;1.88;;;1.20;;
67585;SDS011;55785;47.946;20.540;2023-07-29T09:35:23;1.77;;;1.45;;
67585;SDS011;55785;47.946;20.540;2023-07-29T09:37:57;2.90;;;1.50;;
67585;SDS011;55785;47.946;20.540;2023-07-29T09:40:22;2.63;;;1.60;;
67585;SDS011;55785;47.946;20.540;2023-07-29T09:42:48;2.50;;;1.40;;
67585;SDS011;55785;47.946;20.540;2023-07-29T09:45:21;2.58;;;1.60;;
67585;SDS011;55785;47.946;20.540;2023-07-29T09:47:47;2.20;;;1.40;;
67585;SDS011;55785;47.946;20.540;2023-07-29T09:50:13;3.97;;;1.52;;
67585;SDS011;55785;47.946;20.540;2023-07-29T09:52:38;2.13;;;1.42;;
67585;SDS011;55785;47.946;20.540;2023-07-29T09:55:04;1.77;;;1.42;;
67585;SDS011;55785;47.946;20.540;2023-07-29T09:57:30;3.38;;;1.65;;
67585;SDS011;55785;47.946;20.540;2023-07-29T09:59:55;2.22;;;1.60;;
67585;SDS011;55785;47.946;20.540;2023-07-29T10:02:21;1.50;;;1.40;;
67585;SDS011;55785;47.946;20.540;2023-07-29T10:04:47;2.00;;;1.40;;
67585;SDS011;55785;47.946;20.540;2023-07-29T10:07:14;2.28;;;1.50;;
67585;SDS011;55785;47.946;20.540;2023-07-29T10:09:40;3.08;;;1.60;;
67585;SDS011;55785;47.946;20.540;2023-07-29T10:12:07;3.05;;;1.70;;
67585;SDS011;55785;47.946;20.540;2023-07-29T10:14:34;2.85;;;1.50;;
67585;SDS011;55785;47.946;20.540;2023-07-29T10:17:01;2.38;;;1.50;;
67585;SDS011;55785;47.946;20.540;2023-07-29T10:19:27;2.65;;;1.50;;
67585;SDS011;55785;47.946;20.540;2023-07-29T10:21:53;1.92;;;1.40;;
67585;SDS011;55785;47.946;20.540;2023-07-29T10:24:22;2.17;;;1.63;;
67585;SDS011;55785;47.946;20.540;2023-07-29T10:26:51;3.72;;;1.40;;
67585;SDS011;55785;47.946;20.540;2023-07-29T10:29:18;2.80;;;1.38;;
67585;SDS011;55785;47.946;20.540;2023-07-29T10:31:44;1.70;;;1.42;;
67585;SDS011;55785;47.946;20.540;2023-07-29T10:34:11;2.72;;;1.63;;
67585;SDS011;55785;47.946;20.540;2023-07-29T10:36:37;2.83;;;1.77;;
67585;SDS011;55785;47.946;20.540;2023-07-29T10:39:03;1.90;;;1.60;;
67585;SDS011;55785;47.946;20.540;2023-07-29T10:47:11;6.32;;;1.70;;
67585;SDS011;55785;47.946;20.540;2023-07-29T10:49:45;5.00;;;1.90;;
67585;SDS011;55785;47.946;20.540;2023-07-29T10:52:15;6.25;;;2.20;;
67585;SDS011;55785;47.946;20.540;2023-07-29T10:54:42;3.33;;;2.00;;
67585;SDS011;55785;47.946;20.540;2023-07-29T10:57:08;2.83;;;1.77;;
67585;SDS011;55785;47.946;20.540;2023-07-29T10:59:40;2.60;;;1.70;;
67585;SDS011;55785;47.946;20.540;2023-07-29T11:02:15;3.25;;;2.13;;
67585;SDS011;55785;47.946;20.540;2023-07-29T11:04:51;3.65;;;2.00;;
67585;SDS011;55785;47.946;20.540;2023-07-29T11:09:43;3.50;;;1.95;;
67585;SDS011;55785;47.946;20.540;2023-07-29T11:12:39;5.43;;;1.92;;
67585;SDS011;55785;47.946;20.540;2023-07-29T11:15:21;4.13;;;2.30;;
67585;SDS011;55785;47.946;20.540;2023-07-29T11:17:50;2.17;;;1.73;;
67585;SDS011;55785;47.946;20.540;2023-07-29T11:20:16;2.70;;;1.67;;
67585;SDS011;55785;47.946;20.540;2023-07-29T11:22:43;2.40;;;1.85;;
67585;SDS011;55785;47.946;20.540;2023-07-29T11:25:09;3.53;;;2.17;;
67585;SDS011;55785;47.946;20.540;2023-07-29T11:27:36;4.45;;;1.80;;
67585;SDS011;55785;47.946;20.540;2023-07-29T11:30:06;2.72;;;1.60;;
67585;SDS011;55785;47.946;20.540;2023-07-29T11:32:33;2.58;;;1.70;;
67585;SDS011;55785;47.946;20.540;2023-07-29T11:35:06;3.42;;;1.65;;
67585;SDS011;55785;47.946;20.540;2023-07-29T11:37:34;2.92;;;1.88;;
67585;SDS011;55785;47.946;20.540;2023-07-29T11:39:59;1.90;;;1.60;;
67585;SDS011;55785;47.946;20.540;2023-07-29T11:42:26;2.95;;;1.33;;
67585;SDS011;55785;47.946;20.540;2023-07-29T11:44:52;1.80;;;1.23;;
67585;SDS011;55785;47.946;20.540;2023-07-29T11:47:17;2.30;;;1.40;;
67585;SDS011;55785;47.946;20.540;2023-07-29T11:49:42;3.50;;;1.40;;
67585;SDS011;55785;47.946;20.540;2023-07-29T11:52:08;2.70;;;1.35;;
67585;SDS011;55785;47.946;20.540;2023-07-29T11:54:37;1.90;;;1.20;;
67585;SDS011;55785;47.946;20.540;2023-07-29T11:57:07;2.65;;;1.40;;
67585;SDS011;55785;47.946;20.540;2023-07-29T11:59:34;2.10;;;1.30;;
67585;SDS011;55785;47.946;20.540;2023-07-29T12:02:01;1.40;;;1.30;;
67585;SDS011;55785;47.946;20.540;2023-07-29T12:04:30;1.65;;;1.23;;
67585;SDS011;55785;47.946;20.540;2023-07-29T12:06:56;2.70;;;1.42;;
67585;SDS011;55785;47.946;20.540;2023-07-29T12:09:22;1.38;;;1.20;;
67585;SDS011;55785;47.946;20.540;2023-07-29T12:11:48;1.95;;;1.33;;
67585;SDS011;55785;47.946;20.540;2023-07-29T12:14:13;2.95;;;1.40;;
67585;SDS011;55785;47.946;20.540;2023-07-29T12:16:42;1.42;;;1.23;;
67585;SDS011;55785;47.946;20.540;2023-07-29T12:19:11;1.60;;;1.40;;
67585;SDS011;55785;47.946;20.540;2023-07-29T12:21:37;2.00;;;1.50;;
67585;SDS011;55785;47.946;20.540;2023-07-29T12:24:03;2.95;;;1.45;;
67585;SDS011;55785;47.946;20.540;2023-07-29T12:26:29;1.52;;;1.20;;
67585;SDS011;55785;47.946;20.540;2023-07-29T12:28:55;3.10;;;1.30;;
67585;SDS011;55785;47.946;20.540;2023-07-29T12:31:20;2.92;;;1.45;;
67585;SDS011;55785;47.946;20.540;2023-07-29T12:33:45;3.10;;;1.38;;
67585;SDS011;55785;47.946;20.540;2023-07-29T12:36:11;6.53;;;1.38;;
67585;SDS011;55785;47.946;20.540;2023-07-29T12:38:36;1.85;;;1.20;;
67585;SDS011;55785;47.946;20.540;2023-07-29T12:41:01;1.90;;;1.40;;
67585;SDS011;55785;47.946;20.540;2023-07-29T12:43:27;1.38;;;1.23;;
67585;SDS011;55785;47.946;20.540;2023-07-29T12:45:53;1.60;;;1.25;;
67585;SDS011;55785;47.946;20.540;2023-07-29T12:48:18;1.48;;;1.25;;
67585;SDS011;55785;47.946;20.540;2023-07-29T12:50:43;2.67;;;1.20;;
67585;SDS011;55785;47.946;20.540;2023-07-29T12:53:09;1.25;;;1.08;;
67585;SDS011;55785;47.946;20.540;2023-07-29T12:55:34;1.75;;;1.10;;
67585;SDS011;55785;47.946;20.540;2023-07-29T12:58:00;1.20;;;1.10;;
67585;SDS011;55785;47.946;20.540;2023-07-29T13:00:25;1.27;;;1.00;;
67585;SDS011;55785;47.946;20.540;2023-07-29T13:02:51;1.88;;;1.10;;
67585;SDS011;55785;47.946;20.540;2023-07-29T13:05:16;1.52;;;1.10;;
67585;SDS011;55785;47.946;20.540;2023-07-29T13:07:42;1.30;;;0.85;;
67585;SDS011;55785;47.946;20.540;2023-07-29T13:10:08;2.03;;;1.02;;
67585;SDS011;55785;47.946;20.540;2023-07-29T13:12:34;2.72;;;0.80;;
67585;SDS011;55785;47.946;20.540;2023-07-29T13:15:00;1.00;;;0.90;;
67585;SDS011;55785;47.946;20.540;2023-07-29T13:17:25;1.33;;;1.00;;
67585;SDS011;55785;47.946;20.540;2023-07-29T13:19:51;1.08;;;0.95;;
67585;SDS011;55785;47.946;20.540;2023-07-29T13:22:16;1.25;;;0.80;;
67585;SDS011;55785;47.946;20.540;2023-07-29T13:24:42;0.85;;;0.70;;
67585;SDS011;55785;47.946;20.540;2023-07-29T13:27:07;0.98;;;0.70;;
67585;SDS011;55785;47.946;20.540;2023-07-29T13:29:33;0.80;;;0.80;;
67585;SDS011;55785;47.946;20.540;2023-07-29T13:31:58;0.93;;;0.80;;
67585;SDS011;55785;47.946;20.540;2023-07-29T13:34:23;0.70;;;0.70;;
67585;SDS011;55785;47.946;20.540;2023-07-29T13:36:49;1.10;;;0.70;;
67585;SDS011;55785;47.946;20.540;2023-07-29T13:39:14;0.90;;;0.80;;
67585;SDS011;55785;47.946;20.540;2023-07-29T13:41:40;1.05;;;0.80;;
67585;SDS011;55785;47.946;20.540;2023-07-29T13:44:05;0.75;;;0.70;;
67585;SDS011;55785;47.946;20.540;2023-07-29T13:46:31;0.90;;;0.80;;
67585;SDS011;55785;47.946;20.540;2023-07-29T13:48:56;1.25;;;0.90;;
67585;SDS011;55785;47.946;20.540;2023-07-29T13:51:21;1.23;;;0.95;;
67585;SDS011;55785;47.946;20.540;2023-07-29T13:53:47;1.63;;;0.95;;
67585;SDS011;55785;47.946;20.540;2023-07-29T13:56:12;1.52;;;0.90;;
67585;SDS011;55785;47.946;20.540;2023-07-29T13:58:37;0.93;;;0.73;;
67585;SDS011;55785;47.946;20.540;2023-07-29T14:01:03;1.10;;;0.80;;
67585;SDS011;55785;47.946;20.540;2023-07-29T14:03:28;1.67;;;0.77;;
67585;SDS011;55785;47.946;20.540;2023-07-29T14:05:53;0.90;;;0.75;;
67585;SDS011;55785;47.946;20.540;2023-07-29T14:08:19;1.00;;;0.80;;
67585;SDS011;55785;47.946;20.540;2023-07-29T14:10:44;1.60;;;0.82;;
67585;SDS011;55785;47.946;20.540;2023-07-29T14:13:10;1.52;;;0.85;;
67585;SDS011;55785;47.946;20.540;2023-07-29T14:15:36;1.30;;;1.00;;
67585;SDS011;55785;47.946;20.540;2023-07-29T14:18:01;1.23;;;0.93;;
67585;SDS011;55785;47.946;20.540;2023-07-29T14:20:27;1.23;;;1.08;;
67585;SDS011;55785;47.946;20.540;2023-07-29T14:22:52;0.95;;;0.80;;
67585;SDS011;55785;47.946;20.540;2023-07-29T14:25:17;0.70;;;0.70;;
67585;SDS011;55785;47.946;20.540;2023-07-29T14:27:43;1.10;;;1.00;;
67585;SDS011;55785;47.946;20.540;2023-07-29T14:30:08;0.90;;;0.80;;
67585;SDS011;55785;47.946;20.540;2023-07-29T14:32:34;1.38;;;0.75;;
67585;SDS011;55785;47.946;20.540;2023-07-29T14:34:59;1.63;;;0.80;;
67585;SDS011;55785;47.946;20.540;2023-07-29T14:37:24;1.00;;;0.90;;
67585;SDS011;55785;47.946;20.540;2023-07-29T14:39:50;1.10;;;0.95;;
67585;SDS011;55785;47.946;20.540;2023-07-29T14:42:15;1.35;;;0.98;;
67585;SDS011;55785;47.946;20.540;2023-07-29T14:44:40;1.70;;;1.05;;